createdAt,value
2023-06-19T00:00:28.152Z,3.78
2023-06-19T00:02:55.864Z,4.07
2023-06-19T00:05:26.035Z,3.20
2023-06-19T00:07:53.832Z,3.17
2023-06-19T00:10:21.824Z,3.60
2023-06-19T00:12:49.815Z,3.75
2023-06-19T00:15:17.500Z,4.25
2023-06-19T00:17:45.134Z,4.40
2023-06-19T00:20:14.523Z,2.72
2023-06-19T00:22:44.073Z,3.40
2023-06-19T00:25:11.713Z,4.10
2023-06-19T00:27:39.411Z,3.10
2023-06-19T00:30:09.132Z,2.83
2023-06-19T00:32:47.270Z,2.80
2023-06-19T00:35:16.092Z,3.28
2023-06-19T00:37:46.457Z,4.00
2023-06-19T00:40:28.346Z,3.80
2023-06-19T00:42:56.269Z,3.72
2023-06-19T00:45:24.878Z,4.25
2023-06-19T00:47:52.897Z,3.28
2023-06-19T00:50:20.842Z,3.40
2023-06-19T00:52:49.914Z,4.97
2023-06-19T00:55:18.775Z,2.60
2023-06-19T00:57:47.430Z,4.63
2023-06-19T01:00:15.839Z,3.85
2023-06-19T01:02:43.618Z,4.25
2023-06-19T01:05:11.378Z,3.65
2023-06-19T01:07:46.645Z,3.78
2023-06-19T01:10:18.812Z,3.15
2023-06-19T01:12:53.090Z,4.53
2023-06-19T01:15:21.886Z,3.40
2023-06-19T01:17:50.798Z,4.25
2023-06-19T01:20:18.463Z,4.07
2023-06-19T01:22:47.429Z,3.08
2023-06-19T01:25:15.486Z,3.70
2023-06-19T01:27:44.213Z,4.32
2023-06-19T01:30:13.596Z,3.70
2023-06-19T01:32:47.908Z,4.32
2023-06-19T01:35:17.966Z,3.92
2023-06-19T01:37:49.693Z,3.50
2023-06-19T01:40:22.029Z,4.53
2023-06-19T01:42:50.497Z,2.97
2023-06-19T01:45:18.095Z,3.05
2023-06-19T01:47:45.910Z,4.10
2023-06-19T01:50:14.044Z,3.67
2023-06-19T01:52:41.873Z,5.85
2023-06-19T01:55:11.728Z,3.50
2023-06-19T01:57:39.461Z,5.13
2023-06-19T02:00:09.071Z,4.90
2023-06-19T02:02:36.930Z,5.68
2023-06-19T02:05:05.605Z,6.78
2023-06-19T02:07:33.306Z,4.88
2023-06-19T02:10:00.932Z,6.13
2023-06-19T02:12:29.878Z,5.38
2023-06-19T02:14:57.522Z,3.65
2023-06-19T02:17:25.232Z,4.50
2023-06-19T02:19:52.937Z,2.97
2023-06-19T02:22:20.490Z,3.65
2023-06-19T02:24:48.048Z,6.38
2023-06-19T02:27:17.003Z,4.28
2023-06-19T02:29:46.011Z,4.13
2023-06-19T02:32:13.640Z,4.03
2023-06-19T02:34:41.263Z,4.10
2023-06-19T02:37:09.238Z,3.45
2023-06-19T02:39:36.853Z,3.17
2023-06-19T02:42:05.043Z,6.47
2023-06-19T02:44:32.629Z,4.10
2023-06-19T02:47:01.670Z,4.93
2023-06-19T02:49:29.211Z,4.72
2023-06-19T02:51:56.788Z,5.50
2023-06-19T02:54:24.382Z,4.03
2023-06-19T02:56:52.033Z,4.40
2023-06-19T02:59:19.781Z,5.63
2023-06-19T03:01:48.612Z,4.72
2023-06-19T03:04:18.543Z,3.20
2023-06-19T03:06:46.092Z,4.85
2023-06-19T03:09:13.951Z,4.53
2023-06-19T03:11:41.628Z,3.20
2023-06-19T03:14:10.358Z,3.42
2023-06-19T03:16:38.199Z,3.15
2023-06-19T03:19:06.133Z,4.90
2023-06-19T03:21:36.384Z,3.92
2023-06-19T03:24:04.324Z,5.00
2023-06-19T03:26:31.980Z,5.90
2023-06-19T03:28:59.586Z,4.80
2023-06-19T03:31:27.299Z,4.70
2023-06-19T03:33:54.848Z,4.55
2023-06-19T03:36:23.984Z,3.97
2023-06-19T03:38:56.439Z,7.45
2023-06-19T03:41:24.065Z,16.27
2023-06-19T03:43:51.623Z,7.28
2023-06-19T03:46:19.370Z,4.45
2023-06-19T03:48:46.956Z,5.72
2023-06-19T03:51:14.532Z,4.25
2023-06-19T03:53:42.926Z,3.10
2023-06-19T03:56:11.969Z,3.85
2023-06-19T03:58:39.597Z,4.80
2023-06-19T04:01:07.256Z,4.85
2023-06-19T04:03:34.878Z,4.97
2023-06-19T04:06:02.512Z,4.63
2023-06-19T04:08:30.100Z,5.80
2023-06-19T04:10:57.761Z,6.00
2023-06-19T04:13:26.994Z,3.67
2023-06-19T04:15:54.669Z,4.63
2023-06-19T04:18:22.278Z,4.63
2023-06-19T04:20:49.824Z,4.93
2023-06-19T04:23:17.717Z,5.13
2023-06-19T04:25:45.376Z,6.15
2023-06-19T04:28:12.948Z,5.28
2023-06-19T04:30:41.852Z,5.97
2023-06-19T04:33:09.939Z,7.72
2023-06-19T04:35:40.889Z,6.28
2023-06-19T04:38:08.586Z,8.77
2023-06-19T04:40:36.221Z,6.60
2023-06-19T04:43:06.803Z,7.72
2023-06-19T04:45:34.453Z,6.47
2023-06-19T04:48:04.411Z,6.45
2023-06-19T04:50:32.306Z,7.80
2023-06-19T04:52:59.957Z,5.95
2023-06-19T04:55:27.740Z,5.25
2023-06-19T04:57:55.729Z,6.88
2023-06-19T05:00:24.873Z,6.10
2023-06-19T05:02:52.840Z,8.77
2023-06-19T05:05:24.452Z,5.30
2023-06-19T05:07:52.502Z,6.38
2023-06-19T05:10:20.256Z,6.90
2023-06-19T05:12:47.810Z,4.57
2023-06-19T05:15:15.352Z,8.65
2023-06-19T05:17:43.005Z,9.32
2023-06-19T05:20:13.263Z,5.72
2023-06-19T05:22:42.234Z,74.40
2023-06-19T05:25:10.844Z,47.35
2023-06-19T05:27:38.424Z,32.92
2023-06-19T05:30:07.310Z,36.15
2023-06-19T05:32:34.904Z,26.13
2023-06-19T05:35:03.562Z,46.78
2023-06-19T05:41:38.816Z,4.85
2023-06-19T05:44:06.488Z,5.90
2023-06-19T05:46:34.159Z,5.32
2023-06-19T05:49:01.739Z,4.85
2023-06-19T05:51:29.393Z,5.55
2023-06-19T05:54:02.139Z,4.40
2023-06-19T05:56:29.721Z,4.68
2023-06-19T05:58:58.741Z,14.52
2023-06-19T06:01:28.876Z,13.15
2023-06-19T06:03:56.518Z,12.43
2023-06-19T06:06:42.458Z,6.82
2023-06-19T06:09:29.037Z,5.10
2023-06-19T06:12:15.339Z,4.88
2023-06-19T06:15:02.796Z,3.33
2023-06-19T06:17:48.975Z,17.75
2023-06-19T06:20:35.178Z,15.40
2023-06-19T06:23:21.336Z,34.05
2023-06-19T06:26:07.827Z,8.38
2023-06-19T06:28:53.817Z,8.48
2023-06-19T06:31:42.618Z,5.88
2023-06-19T06:34:29.384Z,9.50
2023-06-19T06:37:17.483Z,28.30
2023-06-19T06:40:04.337Z,25.75
2023-06-19T06:42:50.915Z,24.13
2023-06-19T06:45:38.605Z,16.52
2023-06-19T06:48:26.268Z,7.60
2023-06-19T06:51:12.637Z,4.00
2023-06-19T06:53:59.019Z,10.27
2023-06-19T06:56:48.866Z,11.07
2023-06-19T06:59:35.205Z,29.50
2023-06-19T07:02:21.498Z,7.22
2023-06-19T07:05:10.916Z,6.30
2023-06-19T07:07:57.187Z,5.15
2023-06-19T07:10:43.949Z,9.60
2023-06-19T07:13:30.102Z,9.45
2023-06-19T07:16:16.407Z,12.02
2023-06-19T07:19:02.843Z,4.90
2023-06-19T07:21:52.049Z,3.40
2023-06-19T07:24:38.600Z,5.88
2023-06-19T07:27:28.498Z,5.85
2023-06-19T07:30:17.040Z,3.22
2023-06-19T07:33:03.528Z,3.97
2023-06-19T07:35:49.798Z,5.68
2023-06-19T07:38:37.404Z,4.03
2023-06-19T07:41:23.670Z,4.22
2023-06-19T07:44:09.946Z,4.18
2023-06-19T07:46:56.358Z,4.13
2023-06-19T07:49:42.572Z,4.90
2023-06-19T07:52:28.658Z,4.65
2023-06-19T07:55:16.387Z,4.13
2023-06-19T07:58:02.751Z,5.00
2023-06-19T08:00:48.857Z,4.57
2023-06-19T08:03:35.155Z,5.53
2023-06-19T08:06:21.839Z,22.58
2023-06-19T08:09:08.060Z,20.67
2023-06-19T08:11:55.594Z,8.75
2023-06-19T08:14:42.110Z,7.50
2023-06-19T08:17:28.291Z,5.80
2023-06-19T08:20:14.718Z,5.47
2023-06-19T08:23:01.010Z,4.95
2023-06-19T08:25:47.653Z,5.32
2023-06-19T08:28:35.656Z,5.03
2023-06-19T08:31:22.673Z,3.10
2023-06-19T08:34:10.491Z,4.95
2023-06-19T08:36:56.757Z,5.28
2023-06-19T08:39:43.209Z,4.68
2023-06-19T08:42:29.605Z,4.72
2023-06-19T08:45:19.684Z,3.95
2023-06-19T08:48:06.432Z,16.27
2023-06-19T08:50:52.698Z,26.83
2023-06-19T08:53:46.835Z,14.32
2023-06-19T08:56:35.326Z,6.70
2023-06-19T08:59:22.219Z,4.35
2023-06-19T09:02:09.913Z,9.75
2023-06-19T09:04:56.299Z,28.95
2023-06-19T09:07:42.516Z,21.40
2023-06-19T09:10:28.666Z,6.13
2023-06-19T09:13:15.190Z,5.95
2023-06-19T09:16:03.464Z,8.30
2023-06-19T09:18:50.987Z,10.20
2023-06-19T09:21:39.188Z,11.38
2023-06-19T09:24:25.902Z,5.90
2023-06-19T09:27:14.924Z,7.35
2023-06-19T09:30:02.862Z,6.47
2023-06-19T09:32:49.578Z,4.05
2023-06-19T09:35:36.898Z,5.32
2023-06-19T09:38:26.964Z,4.72
2023-06-19T09:41:14.246Z,4.07
2023-06-19T09:44:01.079Z,5.28
2023-06-19T09:46:50.572Z,5.10
2023-06-19T09:49:38.029Z,4.05
2023-06-19T09:52:26.282Z,4.82
2023-06-19T09:55:14.787Z,4.45
2023-06-19T09:58:04.008Z,5.53
2023-06-19T10:00:51.867Z,7.13
2023-06-19T10:03:38.962Z,6.28
2023-06-19T10:06:26.828Z,4.38
2023-06-19T10:09:18.864Z,6.93
2023-06-19T10:12:14.356Z,5.30
2023-06-19T10:18:02.017Z,4.80
2023-06-19T10:20:48.603Z,4.80
2023-06-19T10:23:38.618Z,5.25
2023-06-19T10:26:33.962Z,4.47
2023-06-19T10:29:20.202Z,4.28
2023-06-19T10:32:07.424Z,4.97
2023-06-19T10:34:53.721Z,4.13
2023-06-19T10:37:39.927Z,4.72
2023-06-19T10:40:26.389Z,4.95
2023-06-19T10:43:13.829Z,4.03
2023-06-19T10:46:00.430Z,3.50
2023-06-19T10:48:47.589Z,4.05
2023-06-19T10:51:36.557Z,6.32
2023-06-19T10:57:09.836Z,3.75
2023-06-19T10:59:57.464Z,3.83
2023-06-19T11:02:44.733Z,4.30
2023-06-19T11:05:31.686Z,5.30
2023-06-19T11:08:20.346Z,4.20
2023-06-19T11:11:06.311Z,6.55
2023-06-19T11:13:52.490Z,8.80
2023-06-19T11:16:44.110Z,13.70
2023-06-19T11:19:34.303Z,4.82
2023-06-19T11:22:20.636Z,5.15
2023-06-19T11:25:08.093Z,5.53
2023-06-19T11:27:55.686Z,4.32
2023-06-19T11:30:44.556Z,6.13
2023-06-19T11:33:34.679Z,4.18
2023-06-19T11:36:21.213Z,4.40
2023-06-19T11:39:12.620Z,4.90
2023-06-19T11:42:01.195Z,8.50
2023-06-19T11:44:56.916Z,5.70
2023-06-19T11:47:45.432Z,4.45
2023-06-19T11:50:33.399Z,5.13
2023-06-19T11:53:19.576Z,5.43
2023-06-19T11:56:06.417Z,7.40
2023-06-19T11:58:52.586Z,4.30
2023-06-19T12:01:39.541Z,3.30
2023-06-19T12:04:26.209Z,3.42
2023-06-19T12:07:14.351Z,4.68
2023-06-19T12:10:02.665Z,4.07
2023-06-19T12:12:49.646Z,3.78
2023-06-19T12:15:37.770Z,3.50
2023-06-19T12:18:24.468Z,6.32
2023-06-19T12:21:21.003Z,4.53
2023-06-19T12:24:17.361Z,4.53
2023-06-19T12:27:03.937Z,12.75
2023-06-19T12:29:50.244Z,5.82
2023-06-19T12:32:36.370Z,8.32
2023-06-19T12:35:24.132Z,5.78
2023-06-19T12:38:10.691Z,5.93
2023-06-19T12:40:58.141Z,5.38
2023-06-19T12:43:44.424Z,6.68
2023-06-19T12:46:30.778Z,6.03
2023-06-19T12:49:17.057Z,5.65
2023-06-19T12:52:03.487Z,15.77
2023-06-19T12:54:49.673Z,6.90
2023-06-19T12:57:37.366Z,5.72
2023-06-19T13:00:23.670Z,4.72
2023-06-19T13:03:10.015Z,4.72
2023-06-19T13:05:56.511Z,4.97
2023-06-19T13:08:43.853Z,5.35
2023-06-19T13:11:30.118Z,4.30
2023-06-19T13:14:17.811Z,4.10
2023-06-19T13:17:04.306Z,5.43
2023-06-19T13:19:50.551Z,4.25
2023-06-19T13:22:36.643Z,3.85
2023-06-19T13:25:22.941Z,5.07
2023-06-19T13:28:09.014Z,5.28
2023-06-19T13:30:56.432Z,36.97
2023-06-19T13:33:42.714Z,9.30
2023-06-19T13:36:28.731Z,3.70
2023-06-19T13:39:15.082Z,4.07
2023-06-19T13:42:02.698Z,9.55
2023-06-19T13:44:51.214Z,4.68
2023-06-19T13:50:25.899Z,5.43
2023-06-19T13:53:12.782Z,4.25
2023-06-19T13:55:59.995Z,4.43
2023-06-19T13:58:46.547Z,3.47
2023-06-19T14:01:33.536Z,5.15
2023-06-19T14:04:21.390Z,4.80
2023-06-19T14:07:09.649Z,3.92
2023-06-19T14:09:55.876Z,4.60
2023-06-19T14:12:41.936Z,4.57
2023-06-19T14:15:27.884Z,5.22
2023-06-19T14:18:14.333Z,3.50
2023-06-19T14:21:02.100Z,4.50
2023-06-19T14:23:48.406Z,3.35
2023-06-19T14:26:34.646Z,4.30
2023-06-19T14:29:21.771Z,4.65
2023-06-19T14:32:08.024Z,4.55
2023-06-19T14:34:54.353Z,5.00
2023-06-19T14:37:41.572Z,4.32
2023-06-19T14:40:27.977Z,4.13
2023-06-19T14:43:14.441Z,4.20
2023-06-19T14:46:00.637Z,4.78
2023-06-19T14:48:48.934Z,4.45
2023-06-19T14:51:35.536Z,3.97
2023-06-19T14:54:23.325Z,5.15
2023-06-19T14:57:09.626Z,3.97
2023-06-19T14:59:56.122Z,3.97
2023-06-19T15:02:43.251Z,3.58
2023-06-19T15:05:29.761Z,3.40
2023-06-19T15:08:22.144Z,4.32
2023-06-19T15:11:09.770Z,4.60
2023-06-19T15:13:56.024Z,3.78
2023-06-19T15:16:42.355Z,3.40
2023-06-19T15:19:28.781Z,4.95
2023-06-19T15:22:15.055Z,4.18
2023-06-19T15:25:01.228Z,6.60
2023-06-19T15:27:48.677Z,5.25
2023-06-19T15:30:34.855Z,5.20
2023-06-19T15:33:20.959Z,5.70
2023-06-19T15:36:07.766Z,5.07
2023-06-19T15:38:53.911Z,4.20
2023-06-19T15:41:39.895Z,4.55
2023-06-19T15:44:27.594Z,5.10
2023-06-19T15:47:13.837Z,4.45
2023-06-19T15:49:59.897Z,9.60
2023-06-19T15:52:47.445Z,29.52
2023-06-19T15:55:33.628Z,7.45
2023-06-19T15:58:20.046Z,3.97
2023-06-19T16:01:07.675Z,6.55
2023-06-19T16:03:54.362Z,4.63
2023-06-19T16:06:42.315Z,5.15
2023-06-19T16:09:29.863Z,5.20
2023-06-19T16:12:17.733Z,4.35
2023-06-19T16:15:03.946Z,5.63
2023-06-19T16:17:52.322Z,6.32
2023-06-19T16:20:38.761Z,4.22
2023-06-19T16:23:25.799Z,5.03
2023-06-19T16:26:12.313Z,5.43
2023-06-19T16:28:58.716Z,3.20
2023-06-19T16:31:47.187Z,3.80
2023-06-19T16:34:38.983Z,3.97
2023-06-19T16:37:25.384Z,6.47
2023-06-19T16:40:12.594Z,4.75
2023-06-19T16:42:59.717Z,5.05
2023-06-19T16:45:45.987Z,3.28
2023-06-19T16:48:32.433Z,4.15
2023-06-19T16:51:19.963Z,4.95
2023-06-19T16:54:06.400Z,3.58
2023-06-19T16:56:52.453Z,9.00
2023-06-19T16:59:38.588Z,24.20
2023-06-19T17:02:24.737Z,4.20
2023-06-19T17:05:11.289Z,3.60
2023-06-19T17:07:58.780Z,2.72
2023-06-19T17:10:44.728Z,2.85
2023-06-19T17:13:30.979Z,2.08
2023-06-19T17:16:17.256Z,3.22
2023-06-19T17:19:04.822Z,2.15
2023-06-19T17:21:51.105Z,1.92
2023-06-19T17:24:40.452Z,3.42
2023-06-19T17:27:26.984Z,2.15
2023-06-19T17:30:14.148Z,4.60
2023-06-19T17:33:00.584Z,1.65
2023-06-19T17:35:46.658Z,2.53
2023-06-19T17:38:32.921Z,1.58
2023-06-19T17:41:20.504Z,8.18
2023-06-19T17:44:07.628Z,21.00
2023-06-19T17:46:54.390Z,8.95
2023-06-19T17:49:40.587Z,2.90
2023-06-19T17:52:26.525Z,1.90
2023-06-19T17:55:14.296Z,2.17
2023-06-19T17:58:01.629Z,2.10
2023-06-19T18:00:47.859Z,1.67
2023-06-19T18:03:34.013Z,2.83
2023-06-19T18:06:20.392Z,2.08
2023-06-19T18:09:06.936Z,2.38
2023-06-19T18:11:53.280Z,2.40
2023-06-19T18:14:41.055Z,13.40
2023-06-19T18:17:27.311Z,10.07
2023-06-19T18:20:14.074Z,10.45
2023-06-19T18:23:00.192Z,13.13
2023-06-19T18:25:46.485Z,3.38
2023-06-19T18:28:32.566Z,2.67
2023-06-19T18:31:20.323Z,3.17
2023-06-19T18:34:06.312Z,6.63
2023-06-19T18:36:52.664Z,4.28
2023-06-19T18:39:39.265Z,10.60
2023-06-19T18:42:27.794Z,15.65
2023-06-19T18:45:13.742Z,16.25
2023-06-19T18:48:01.145Z,3.85
2023-06-19T18:50:48.614Z,2.65
2023-06-19T18:53:34.895Z,2.45
2023-06-19T18:56:21.338Z,4.60
2023-06-19T18:59:07.693Z,2.45
2023-06-19T19:01:54.050Z,1.85
2023-06-19T19:04:42.799Z,4.72
2023-06-19T19:07:29.560Z,35.30
2023-06-19T19:10:15.735Z,26.00
2023-06-19T19:13:03.486Z,22.30
2023-06-19T19:15:31.098Z,7.38
2023-06-19T19:17:58.728Z,2.72
2023-06-19T19:20:27.876Z,2.40
2023-06-19T19:22:55.598Z,3.47
2023-06-19T19:25:23.215Z,3.30
2023-06-19T19:27:50.788Z,2.58
2023-06-19T19:30:18.433Z,11.20
2023-06-19T19:32:46.313Z,4.30
2023-06-19T19:35:13.935Z,18.20
2023-06-19T19:37:43.009Z,13.63
2023-06-19T19:40:11.631Z,26.20
2023-06-19T19:42:39.334Z,15.45
2023-06-19T19:45:08.046Z,8.25
2023-06-19T19:47:36.232Z,19.95
2023-06-19T19:50:04.087Z,11.07
2023-06-19T19:52:32.128Z,6.63
2023-06-19T19:55:01.098Z,3.05
2023-06-19T19:57:28.761Z,3.53
2023-06-19T19:59:56.319Z,3.75
2023-06-19T20:02:23.952Z,3.05
2023-06-19T20:04:53.090Z,2.13
2023-06-19T20:07:20.727Z,2.90
2023-06-19T20:09:48.346Z,4.03
2023-06-19T20:12:22.003Z,4.15
2023-06-19T20:14:50.433Z,2.83
2023-06-19T20:17:18.108Z,3.67
2023-06-19T20:19:45.684Z,3.80
2023-06-19T20:22:13.326Z,48.15
2023-06-19T20:24:41.059Z,97.30
2023-06-19T20:27:08.777Z,53.42
2023-06-19T20:29:37.669Z,21.10
2023-06-19T20:32:06.030Z,25.55
2023-06-19T20:34:33.748Z,19.75
2023-06-19T20:37:01.415Z,13.88
2023-06-19T20:39:29.009Z,4.45
2023-06-19T20:41:56.593Z,3.42
2023-06-19T20:44:25.747Z,7.18
2023-06-19T20:46:54.676Z,13.73
2023-06-19T20:49:22.361Z,54.53
2023-06-19T20:51:51.396Z,38.22
2023-06-19T20:54:19.249Z,43.55
2023-06-19T20:56:46.936Z,25.30
2023-06-19T20:59:14.747Z,26.88
2023-06-19T21:01:42.618Z,5.82
2023-06-19T21:04:11.510Z,3.70
2023-06-19T21:06:39.172Z,4.07
2023-06-19T21:09:07.628Z,2.28
2023-06-19T21:11:35.284Z,2.42
2023-06-19T21:14:02.895Z,3.30
2023-06-19T21:16:30.505Z,7.20
2023-06-19T21:18:58.186Z,32.97
2023-06-19T21:21:27.077Z,36.95
2023-06-19T21:23:54.754Z,40.50
2023-06-19T21:26:22.401Z,12.00
2023-06-19T21:28:50.067Z,4.55
2023-06-19T21:31:17.746Z,3.10
2023-06-19T21:33:45.351Z,3.22
2023-06-19T21:36:12.937Z,1.60
2023-06-19T21:38:41.889Z,2.42
2023-06-19T21:41:09.436Z,2.30
2023-06-19T21:43:37.108Z,2.00
2023-06-19T21:46:04.722Z,1.20
2023-06-19T21:48:32.266Z,1.65
2023-06-19T21:50:59.830Z,1.52
2023-06-19T21:53:27.925Z,1.67
2023-06-19T21:55:59.250Z,1.50
2023-06-19T22:00:54.253Z,1.88
2023-06-19T22:03:22.024Z,2.13
2023-06-19T22:05:49.667Z,2.10
2023-06-19T22:08:18.140Z,2.20
2023-06-19T22:10:50.088Z,2.55
2023-06-19T22:13:19.004Z,1.92
2023-06-19T22:15:46.616Z,3.25
2023-06-19T22:18:16.818Z,1.70
2023-06-19T22:20:44.454Z,1.80
2023-06-19T22:23:12.101Z,2.25
2023-06-19T22:25:39.897Z,1.98
2023-06-19T22:28:07.740Z,3.63
2023-06-19T22:30:36.682Z,6.00
2023-06-19T22:33:06.789Z,5.40
2023-06-19T22:35:34.517Z,18.15
2023-06-19T22:38:02.096Z,41.97
2023-06-19T22:40:29.844Z,7.20
2023-06-19T22:42:57.402Z,3.33
2023-06-19T22:45:25.199Z,4.28
2023-06-19T22:47:54.410Z,2.78
2023-06-19T22:50:22.495Z,3.72
2023-06-19T22:52:50.021Z,20.45
2023-06-19T22:55:17.597Z,37.85
2023-06-19T22:57:45.187Z,19.15
2023-06-19T23:00:14.048Z,4.00
2023-06-19T23:02:41.895Z,3.25
2023-06-19T23:05:12.149Z,3.53
2023-06-19T23:07:40.092Z,2.63
2023-06-19T23:10:09.580Z,2.15
2023-06-19T23:12:37.153Z,2.08
2023-06-19T23:15:07.421Z,3.10
2023-06-19T23:17:35.039Z,2.53
2023-06-19T23:20:08.756Z,2.55
2023-06-19T23:22:37.658Z,5.95
2023-06-19T23:25:05.704Z,1.98
2023-06-19T23:27:35.232Z,2.47
2023-06-19T23:30:02.997Z,2.08
2023-06-19T23:32:30.624Z,2.72
2023-06-19T23:34:58.942Z,2.33
2023-06-19T23:37:27.721Z,2.83
2023-06-19T23:39:56.710Z,3.72
2023-06-19T23:42:24.452Z,3.80
2023-06-19T23:44:52.025Z,3.72
2023-06-19T23:47:19.669Z,3.95
2023-06-19T23:49:47.258Z,4.45
2023-06-19T23:52:15.827Z,3.97
2023-06-19T23:54:44.330Z,4.00
2023-06-19T23:57:13.586Z,4.50
2023-06-19T23:59:41.974Z,4.60
